createdAt,value
2019-04-27T00:00:18.441Z,0
2019-04-27T00:01:18.570Z,0
2019-04-27T00:02:23.140Z,0
2019-04-27T00:03:18.510Z,0
2019-04-27T00:04:19.222Z,0
2019-04-27T00:05:18.529Z,0
2019-04-27T00:06:18.450Z,0
2019-04-27T00:07:21.248Z,0
2019-04-27T00:08:18.574Z,0
2019-04-27T00:09:18.523Z,0
2019-04-27T00:10:20.470Z,0
2019-04-27T00:11:18.580Z,0
2019-04-27T00:12:22.737Z,0
2019-04-27T00:13:18.489Z,0
2019-04-27T00:14:18.505Z,0
2019-04-27T00:15:18.558Z,0
2019-04-27T00:16:18.560Z,0
2019-04-27T00:17:21.128Z,0
2019-04-27T00:18:18.500Z,0
2019-04-27T00:19:18.562Z,0
2019-04-27T00:20:21.452Z,0
2019-04-27T00:21:18.497Z,0
2019-04-27T00:22:18.583Z,0
2019-04-27T00:23:18.533Z,0
2019-04-27T00:24:18.568Z,0
2019-04-27T00:25:18.634Z,0
2019-04-27T00:26:18.587Z,0
2019-04-27T00:27:18.568Z,0
2019-04-27T00:28:18.525Z,0
2019-04-27T00:29:18.545Z,0
2019-04-27T00:30:18.540Z,0
2019-04-27T00:31:18.591Z,0
2019-04-27T00:32:18.558Z,0
2019-04-27T00:33:18.561Z,0
2019-04-27T00:34:18.473Z,0
2019-04-27T00:35:18.510Z,0
2019-04-27T00:36:18.463Z,0
2019-04-27T00:37:18.576Z,0
2019-04-27T00:38:18.486Z,0
2019-04-27T00:39:18.459Z,0
2019-04-27T00:40:18.480Z,0
2019-04-27T00:41:19.273Z,0
2019-04-27T00:42:18.609Z,0
2019-04-27T00:43:18.490Z,0
2019-04-27T00:44:18.540Z,0
2019-04-27T00:45:18.604Z,0
2019-04-27T00:46:18.586Z,0
2019-04-27T00:47:18.585Z,0
2019-04-27T00:48:18.599Z,0
2019-04-27T00:49:20.231Z,0
2019-04-27T00:50:18.562Z,0
2019-04-27T00:51:18.611Z,0
2019-04-27T00:52:18.516Z,0
2019-04-27T00:53:18.689Z,0
2019-04-27T00:54:18.540Z,0
2019-04-27T00:55:18.559Z,0
2019-04-27T00:56:18.620Z,0
2019-04-27T00:57:18.541Z,0
2019-04-27T00:58:18.627Z,0
2019-04-27T00:59:18.667Z,0
2019-04-27T01:00:18.615Z,0
2019-04-27T01:01:18.500Z,0
2019-04-27T01:02:18.629Z,0
2019-04-27T01:03:18.553Z,0
2019-04-27T01:04:18.618Z,0
2019-04-27T01:05:18.618Z,0
2019-04-27T01:06:18.521Z,0
2019-04-27T01:07:18.561Z,0
2019-04-27T01:08:18.642Z,0
2019-04-27T01:09:18.570Z,0
2019-04-27T01:10:18.610Z,0
2019-04-27T01:11:18.576Z,0
2019-04-27T01:12:18.566Z,0
2019-04-27T01:13:18.572Z,0
2019-04-27T01:14:18.567Z,0
2019-04-27T01:15:18.631Z,0
2019-04-27T01:16:22.043Z,0
2019-04-27T01:17:18.965Z,0
2019-04-27T01:18:19.503Z,0
2019-04-27T01:19:19.113Z,0
2019-04-27T01:20:18.636Z,0
2019-04-27T01:21:19.427Z,0
2019-04-27T01:22:18.909Z,0
2019-04-27T01:23:19.340Z,0
2019-04-27T01:24:18.975Z,0
2019-04-27T01:25:18.993Z,0
2019-04-27T01:26:18.661Z,0
2019-04-27T01:27:18.995Z,0
2019-04-27T01:28:20.632Z,0
2019-04-27T01:29:19.294Z,0
2019-04-27T01:30:18.927Z,0
2019-04-27T01:31:19.296Z,0
2019-04-27T01:32:20.476Z,0
2019-04-27T01:33:19.803Z,0
2019-04-27T01:34:19.243Z,0
2019-04-27T01:35:18.772Z,0
2019-04-27T01:36:19.001Z,0
2019-04-27T01:37:19.692Z,0
2019-04-27T01:38:19.217Z,0
2019-04-27T01:39:18.926Z,0
2019-04-27T01:40:19.361Z,0
2019-04-27T01:41:19.219Z,0
2019-04-27T01:42:19.321Z,0
2019-04-27T01:43:18.742Z,0
2019-04-27T01:44:19.407Z,0
2019-04-27T01:45:18.748Z,0
2019-04-27T01:46:19.561Z,0
2019-04-27T01:47:18.776Z,0
2019-04-27T01:48:23.684Z,0
2019-04-27T01:49:19.362Z,0
2019-04-27T01:50:18.925Z,0
2019-04-27T01:51:20.777Z,0
2019-04-27T01:52:19.411Z,0
2019-04-27T01:53:19.099Z,0
2019-04-27T01:54:19.347Z,0
2019-04-27T01:55:18.914Z,0
2019-04-27T01:56:19.450Z,0
2019-04-27T01:57:19.420Z,0
2019-04-27T01:58:20.177Z,0
2019-04-27T01:59:19.910Z,0
2019-04-27T02:00:19.321Z,0
2019-04-27T02:01:18.818Z,0
2019-04-27T02:02:19.111Z,0
2019-04-27T02:03:19.765Z,0
2019-04-27T02:04:19.301Z,0
2019-04-27T02:05:19.119Z,0
2019-04-27T02:06:19.042Z,0
2019-04-27T02:07:19.163Z,0
2019-04-27T02:08:19.569Z,0
2019-04-27T02:09:18.832Z,0
2019-04-27T02:10:19.143Z,0
2019-04-27T02:11:18.663Z,0
2019-04-27T02:12:19.272Z,0
2019-04-27T02:13:18.944Z,0
2019-04-27T02:14:19.588Z,0
2019-04-27T02:15:19.186Z,0
2019-04-27T02:16:18.840Z,0
2019-04-27T02:17:18.833Z,0
2019-04-27T02:18:19.431Z,0
2019-04-27T02:19:19.398Z,0
2019-04-27T02:20:19.770Z,0
2019-04-27T02:21:19.308Z,0
2019-04-27T02:22:18.848Z,0
2019-04-27T02:23:19.194Z,0
2019-04-27T02:24:18.713Z,0
2019-04-27T02:25:19.261Z,0
2019-04-27T02:26:19.206Z,0
2019-04-27T02:27:18.751Z,0
2019-04-27T02:28:19.475Z,0
2019-04-27T02:29:18.926Z,0
2019-04-27T02:30:20.666Z,0
2019-04-27T02:31:19.346Z,0
2019-04-27T02:32:20.348Z,0
2019-04-27T02:33:20.284Z,0
2019-04-27T02:34:19.945Z,0
2019-04-27T02:35:19.286Z,0
2019-04-27T02:36:20.207Z,0
2019-04-27T02:37:20.034Z,0
2019-04-27T02:38:20.094Z,0
2019-04-27T02:39:19.728Z,0
2019-04-27T02:40:20.484Z,0
2019-04-27T02:41:19.913Z,0
2019-04-27T02:42:19.986Z,0
2019-04-27T02:43:19.406Z,0
2019-04-27T02:44:19.998Z,0
2019-04-27T02:45:19.930Z,0
2019-04-27T02:46:19.996Z,0
2019-04-27T02:47:20.741Z,0
2019-04-27T02:48:19.874Z,0
2019-04-27T02:49:20.180Z,0
2019-04-27T02:50:19.299Z,0
2019-04-27T02:51:20.319Z,0
2019-04-27T02:52:19.813Z,0
2019-04-27T02:53:19.709Z,0
2019-04-27T02:54:20.363Z,0
2019-04-27T02:55:19.786Z,0
2019-04-27T02:56:20.178Z,0
2019-04-27T02:57:19.851Z,0
2019-04-27T02:58:21.503Z,0
2019-04-27T02:59:19.837Z,0
2019-04-27T03:00:20.561Z,0
2019-04-27T03:01:20.039Z,0
2019-04-27T03:02:19.624Z,0
2019-04-27T03:03:20.422Z,0
2019-04-27T03:04:20.431Z,0
2019-04-27T03:05:19.661Z,0
2019-04-27T03:06:19.907Z,0
2019-04-27T03:07:20.142Z,0
2019-04-27T03:08:20.102Z,0
2019-04-27T03:09:20.499Z,0
2019-04-27T03:10:19.915Z,0
2019-04-27T03:11:23.039Z,0
2019-04-27T03:12:19.217Z,0
2019-04-27T03:13:20.043Z,0
2019-04-27T03:14:29.373Z,0
2019-04-27T03:15:22.759Z,0
2019-04-27T03:16:20.464Z,0
2019-04-27T03:17:19.928Z,0
2019-04-27T03:18:19.473Z,0
2019-04-27T03:19:21.663Z,0
2019-04-27T03:20:20.232Z,0
2019-04-27T03:21:20.153Z,0
2019-04-27T03:22:19.502Z,0
2019-04-27T03:23:19.983Z,0
2019-04-27T03:24:19.952Z,0
2019-04-27T03:25:20.195Z,0
2019-04-27T03:26:19.562Z,0
2019-04-27T03:27:20.137Z,0
2019-04-27T03:28:20.022Z,0
2019-04-27T03:29:20.162Z,0
2019-04-27T03:30:23.055Z,0
2019-04-27T03:31:21.360Z,0
2019-04-27T03:32:22.629Z,0
2019-04-27T03:33:22.198Z,0
2019-04-27T03:34:22.219Z,0
2019-04-27T03:35:22.799Z,0
2019-04-27T03:36:21.544Z,0
2019-04-27T03:37:20.314Z,0
2019-04-27T03:38:19.709Z,0
2019-04-27T03:39:19.904Z,0
2019-04-27T03:40:20.387Z,0
2019-04-27T03:41:19.333Z,0
2019-04-27T03:42:20.734Z,0
2019-04-27T03:43:20.054Z,0
2019-04-27T03:44:19.274Z,0
2019-04-27T03:45:19.992Z,0
2019-04-27T03:46:20.513Z,0
2019-04-27T03:47:19.747Z,0
2019-04-27T03:48:20.434Z,0
2019-04-27T03:49:31.910Z,0
2019-04-27T03:50:20.431Z,0
2019-04-27T03:51:19.947Z,0
2019-04-27T03:52:19.809Z,0
2019-04-27T03:53:20.486Z,0
2019-04-27T03:54:19.405Z,0
2019-04-27T03:55:19.719Z,0
2019-04-27T03:56:20.031Z,0
2019-04-27T03:57:19.929Z,0
2019-04-27T03:58:21.716Z,0
2019-04-27T03:59:19.573Z,0
2019-04-27T04:00:20.003Z,0
2019-04-27T04:01:20.302Z,0
2019-04-27T04:02:19.806Z,0
2019-04-27T04:03:20.262Z,0
2019-04-27T04:04:19.530Z,0
2019-04-27T04:05:19.843Z,0
2019-04-27T04:06:19.292Z,0
2019-04-27T04:07:19.744Z,0
2019-04-27T04:08:19.234Z,0
2019-04-27T04:09:19.575Z,0
2019-04-27T04:10:19.836Z,0
2019-04-27T04:11:19.849Z,0
2019-04-27T04:12:19.801Z,0
2019-04-27T04:13:20.406Z,0
2019-04-27T04:14:20.307Z,0
2019-04-27T04:15:19.972Z,0
2019-04-27T04:16:20.187Z,0
2019-04-27T04:17:20.340Z,0
2019-04-27T04:18:19.618Z,0
2019-04-27T04:19:19.706Z,0
2019-04-27T04:20:20.142Z,0
2019-04-27T04:21:19.446Z,0
2019-04-27T04:22:19.950Z,0
2019-04-27T04:23:20.418Z,0
2019-04-27T04:24:19.951Z,0
2019-04-27T04:25:19.994Z,0
2019-04-27T04:26:19.318Z,0
2019-04-27T04:27:20.097Z,0
2019-04-27T04:28:19.869Z,0
2019-04-27T04:29:20.315Z,0
2019-04-27T04:30:19.942Z,0
2019-04-27T04:31:20.859Z,0
2019-04-27T04:32:19.340Z,0
2019-04-27T04:33:20.684Z,15
2019-04-27T04:34:19.759Z,14
2019-04-27T04:35:21.238Z,20
2019-04-27T04:36:20.167Z,17
2019-04-27T04:37:19.580Z,17
2019-04-27T04:38:20.635Z,16
2019-04-27T04:39:19.803Z,18
2019-04-27T04:40:19.633Z,23
2019-04-27T04:41:20.011Z,24
2019-04-27T04:42:19.746Z,23
2019-04-27T04:43:19.981Z,14
2019-04-27T04:44:20.372Z,13
2019-04-27T04:45:20.300Z,12
2019-04-27T04:46:19.097Z,10
2019-04-27T04:47:19.559Z,11
2019-04-27T04:48:20.079Z,10
2019-04-27T04:49:19.399Z,9
2019-04-27T04:50:20.304Z,9
2019-04-27T04:51:20.097Z,12
2019-04-27T04:52:19.729Z,12
2019-04-27T04:53:20.590Z,14
2019-04-27T04:54:19.816Z,14
2019-04-27T04:55:20.415Z,12
2019-04-27T04:56:18.881Z,14
2019-04-27T04:57:21.583Z,10
2019-04-27T04:58:20.895Z,11
2019-04-27T04:59:20.188Z,10
2019-04-27T05:00:19.897Z,11
2019-04-27T05:01:19.700Z,11
2019-04-27T05:02:19.206Z,12
2019-04-27T05:03:19.578Z,13
2019-04-27T05:04:19.374Z,14
2019-04-27T05:05:19.369Z,14
2019-04-27T05:06:19.057Z,14
2019-04-27T05:07:19.464Z,15
2019-04-27T05:08:19.120Z,15
2019-04-27T05:09:19.330Z,15
2019-04-27T05:10:18.984Z,14
2019-04-27T05:11:19.633Z,15
2019-04-27T05:12:19.080Z,15
2019-04-27T05:13:19.346Z,14
2019-04-27T05:14:19.927Z,16
2019-04-27T05:15:20.625Z,17
2019-04-27T05:16:19.052Z,17
2019-04-27T05:17:19.620Z,19
2019-04-27T05:18:19.267Z,21
2019-04-27T05:19:18.961Z,22
2019-04-27T05:20:24.410Z,21
2019-04-27T05:21:18.683Z,23
2019-04-27T05:22:19.557Z,25
2019-04-27T05:23:18.811Z,28
2019-04-27T05:24:19.328Z,31
2019-04-27T05:25:18.722Z,33
2019-04-27T05:26:19.401Z,35
2019-04-27T05:27:19.148Z,36
2019-04-27T05:28:18.904Z,46
2019-04-27T05:29:19.236Z,46
2019-04-27T05:30:19.632Z,49
2019-04-27T05:31:19.469Z,53
2019-04-27T05:32:18.882Z,61
2019-04-27T05:33:18.914Z,69
2019-04-27T05:34:19.714Z,78
2019-04-27T05:35:19.390Z,80
2019-04-27T05:36:19.260Z,98
2019-04-27T05:37:27.641Z,105
2019-04-27T05:38:19.399Z,119
2019-04-27T05:39:24.711Z,125
2019-04-27T05:40:19.020Z,109
2019-04-27T05:41:18.868Z,107
2019-04-27T05:42:20.027Z,97
2019-04-27T05:43:19.400Z,94
2019-04-27T05:44:20.681Z,74
2019-04-27T05:45:19.957Z,69
2019-04-27T05:46:19.192Z,63
2019-04-27T05:47:19.123Z,67
2019-04-27T05:48:27.419Z,67
2019-04-27T05:49:18.855Z,69
2019-04-27T05:50:21.942Z,66
2019-04-27T05:51:19.746Z,69
2019-04-27T05:52:18.678Z,69
2019-04-27T05:53:18.986Z,71
2019-04-27T05:54:19.281Z,92
2019-04-27T05:55:19.196Z,109
2019-04-27T05:56:19.296Z,111
2019-04-27T05:57:19.573Z,104
2019-04-27T05:58:19.536Z,96
2019-04-27T05:59:19.844Z,104
2019-04-27T06:00:19.212Z,101
2019-04-27T06:01:19.648Z,78
2019-04-27T06:02:20.348Z,58
2019-04-27T06:03:20.956Z,58
2019-04-27T06:04:19.424Z,47
2019-04-27T06:05:19.079Z,51
2019-04-27T06:06:19.724Z,83
2019-04-27T06:07:19.376Z,80
2019-04-27T06:08:20.952Z,79
2019-04-27T06:09:19.416Z,81
2019-04-27T06:10:19.794Z,82
2019-04-27T06:11:19.631Z,80
2019-04-27T06:12:19.089Z,83
2019-04-27T06:13:19.059Z,91
2019-04-27T06:14:19.309Z,83
2019-04-27T06:15:19.838Z,96
2019-04-27T06:16:19.515Z,90
2019-04-27T06:17:19.509Z,111
2019-04-27T06:18:19.340Z,97
2019-04-27T06:19:19.382Z,92
2019-04-27T06:20:18.972Z,98
2019-04-27T06:21:19.621Z,101
2019-04-27T06:22:19.027Z,76
2019-04-27T06:23:20.938Z,109
2019-04-27T06:24:18.782Z,104
2019-04-27T06:25:21.592Z,101
2019-04-27T06:26:20.151Z,102
2019-04-27T06:27:20.950Z,117
2019-04-27T06:28:19.093Z,118
2019-04-27T06:29:19.568Z,112
2019-04-27T06:30:19.366Z,95
2019-04-27T06:31:19.635Z,93
2019-04-27T06:32:19.208Z,92
2019-04-27T06:33:29.553Z,112
2019-04-27T06:34:19.370Z,159
2019-04-27T06:35:18.851Z,203
2019-04-27T06:36:19.903Z,268
2019-04-27T06:37:19.374Z,353
2019-04-27T06:38:19.124Z,340
2019-04-27T06:39:20.494Z,291
2019-04-27T06:40:18.899Z,173
2019-04-27T06:41:18.985Z,177
2019-04-27T06:42:20.747Z,209
2019-04-27T06:43:18.993Z,285
2019-04-27T06:44:19.625Z,196
2019-04-27T06:45:19.713Z,243
2019-04-27T06:46:19.961Z,258
2019-04-27T06:47:19.180Z,210
2019-04-27T06:48:19.418Z,201
2019-04-27T06:49:19.461Z,210
2019-04-27T06:50:19.603Z,181
2019-04-27T06:51:19.566Z,195
2019-04-27T06:52:18.850Z,205
2019-04-27T06:53:19.216Z,228
2019-04-27T06:54:19.743Z,209
2019-04-27T06:55:18.954Z,224
2019-04-27T06:56:18.861Z,181
2019-04-27T06:57:19.262Z,170
2019-04-27T06:58:20.048Z,185
2019-04-27T06:59:18.868Z,208
2019-04-27T07:00:19.054Z,228
2019-04-27T07:01:19.099Z,153
2019-04-27T07:02:19.114Z,188
2019-04-27T07:03:19.022Z,191
2019-04-27T07:04:19.600Z,186
2019-04-27T07:05:20.352Z,189
2019-04-27T07:06:18.832Z,207
2019-04-27T07:07:19.483Z,255
2019-04-27T07:08:18.764Z,263
2019-04-27T07:09:19.537Z,256
2019-04-27T07:10:18.762Z,328
2019-04-27T07:11:19.720Z,332
2019-04-27T07:12:19.171Z,344
2019-04-27T07:13:19.609Z,389
2019-04-27T07:14:19.725Z,325
2019-04-27T07:15:20.502Z,278
2019-04-27T07:16:19.578Z,273
2019-04-27T07:17:19.115Z,278
2019-04-27T07:18:18.800Z,466
2019-04-27T07:19:19.102Z,483
2019-04-27T07:20:18.976Z,161
2019-04-27T07:21:24.503Z,593
2019-04-27T07:22:20.055Z,275
2019-04-27T07:23:20.892Z,217
2019-04-27T07:24:19.631Z,224
2019-04-27T07:25:18.963Z,282
2019-04-27T07:26:19.116Z,229
2019-04-27T07:27:21.202Z,252
2019-04-27T07:28:19.082Z,624
2019-04-27T07:29:19.462Z,694
2019-04-27T07:30:19.137Z,335
2019-04-27T07:31:19.279Z,763
2019-04-27T07:32:19.370Z,477
2019-04-27T07:33:18.804Z,811
2019-04-27T07:34:19.108Z,316
2019-04-27T07:35:19.668Z,244
2019-04-27T07:36:18.913Z,600
2019-04-27T07:37:19.577Z,541
2019-04-27T07:38:19.249Z,675
2019-04-27T07:39:19.322Z,698
2019-04-27T07:40:18.907Z,671
2019-04-27T07:41:19.462Z,680
2019-04-27T07:42:20.781Z,698
2019-04-27T07:43:21.088Z,635
2019-04-27T07:44:19.413Z,189
2019-04-27T07:45:19.566Z,739
2019-04-27T07:46:18.831Z,706
2019-04-27T07:47:19.470Z,618
2019-04-27T07:48:18.943Z,712
2019-04-27T07:49:19.064Z,201
2019-04-27T07:50:19.434Z,696
2019-04-27T07:51:31.158Z,709
2019-04-27T07:52:20.459Z,742
2019-04-27T07:53:19.391Z,326
2019-04-27T07:54:19.020Z,749
2019-04-27T07:55:18.901Z,282
2019-04-27T07:56:19.155Z,656
2019-04-27T07:57:19.690Z,236
2019-04-27T07:58:20.595Z,715
2019-04-27T07:59:18.983Z,706
2019-04-27T08:00:19.115Z,747
2019-04-27T08:01:19.338Z,727
2019-04-27T08:02:19.169Z,448
2019-04-27T08:03:19.538Z,801
2019-04-27T08:04:18.910Z,758
2019-04-27T08:05:19.280Z,261
2019-04-27T08:06:19.069Z,272
2019-04-27T08:07:19.638Z,871
2019-04-27T08:08:19.062Z,195
2019-04-27T08:09:19.134Z,786
2019-04-27T08:10:19.468Z,762
2019-04-27T08:11:19.303Z,788
2019-04-27T08:12:20.866Z,759
2019-04-27T08:13:19.491Z,768
2019-04-27T08:14:18.911Z,792
2019-04-27T08:15:19.032Z,777
2019-04-27T08:16:20.765Z,737
2019-04-27T08:17:19.298Z,772
2019-04-27T08:18:19.078Z,776
2019-04-27T08:19:19.662Z,772
2019-04-27T08:20:21.154Z,771
2019-04-27T08:21:18.995Z,756
2019-04-27T08:22:19.540Z,784
2019-04-27T08:23:19.516Z,777
2019-04-27T08:24:19.442Z,789
2019-04-27T08:25:19.066Z,798
2019-04-27T08:26:18.858Z,808
2019-04-27T08:27:19.450Z,804
2019-04-27T08:28:18.930Z,804
2019-04-27T08:29:18.863Z,820
2019-04-27T08:30:19.436Z,791
2019-04-27T08:31:18.932Z,873
2019-04-27T08:32:19.612Z,296
2019-04-27T08:33:19.131Z,674
2019-04-27T08:34:18.910Z,582
2019-04-27T08:35:19.457Z,1002
2019-04-27T08:36:19.126Z,507
2019-04-27T08:37:18.914Z,598
2019-04-27T08:38:20.584Z,565
2019-04-27T08:39:18.891Z,816
2019-04-27T08:40:19.404Z,457
2019-04-27T08:41:19.708Z,690
2019-04-27T08:42:19.414Z,356
2019-04-27T08:43:19.167Z,438
2019-04-27T08:44:19.428Z,467
2019-04-27T08:45:19.413Z,435
2019-04-27T08:46:18.877Z,378
2019-04-27T08:47:19.474Z,730
2019-04-27T08:48:33.511Z,511
2019-04-27T08:49:18.877Z,420
2019-04-27T08:50:19.250Z,323
2019-04-27T08:51:19.587Z,319
2019-04-27T08:52:19.387Z,702
2019-04-27T08:53:18.887Z,252
2019-04-27T08:54:19.243Z,271
2019-04-27T08:55:19.650Z,462
2019-04-27T08:56:19.411Z,1084
2019-04-27T08:57:18.991Z,485
2019-04-27T08:58:19.699Z,1052
2019-04-27T08:59:19.418Z,915
2019-04-27T09:00:19.390Z,985
2019-04-27T09:01:20.820Z,747
2019-04-27T09:02:19.634Z,917
2019-04-27T09:03:19.350Z,860
2019-04-27T09:04:20.139Z,840
2019-04-27T09:05:19.279Z,725
2019-04-27T09:06:19.059Z,1002
2019-04-27T09:08:19.139Z,1124
2019-04-27T09:09:19.389Z,1196
2019-04-27T09:10:18.903Z,398
2019-04-27T09:11:20.543Z,629
2019-04-27T09:12:19.655Z,442
2019-04-27T09:13:19.478Z,386
2019-04-27T09:14:19.338Z,345
2019-04-27T09:15:19.291Z,386
2019-04-27T09:16:18.899Z,424
2019-04-27T09:17:19.394Z,414
2019-04-27T09:18:19.257Z,443
2019-04-27T09:19:18.926Z,1297
2019-04-27T09:20:18.968Z,859
2019-04-27T09:21:19.197Z,546
2019-04-27T09:22:20.724Z,505
2019-04-27T09:23:18.910Z,1280
2019-04-27T09:24:18.964Z,508
2019-04-27T09:25:19.403Z,348
2019-04-27T09:26:18.955Z,317
2019-04-27T09:27:19.851Z,1055
2019-04-27T09:28:20.284Z,345
2019-04-27T09:29:19.812Z,328
2019-04-27T09:30:19.173Z,351
2019-04-27T09:31:19.605Z,826
2019-04-27T09:32:19.195Z,400
2019-04-27T09:33:18.855Z,353
2019-04-27T09:34:19.009Z,325
2019-04-27T09:35:18.922Z,337
2019-04-27T09:36:18.980Z,318
2019-04-27T09:37:18.977Z,1148
2019-04-27T09:38:18.970Z,1040
2019-04-27T09:39:19.003Z,1026
2019-04-27T09:40:18.991Z,1018
2019-04-27T09:41:18.917Z,866
2019-04-27T09:42:18.917Z,959
2019-04-27T09:43:18.985Z,611
2019-04-27T09:44:18.844Z,775
2019-04-27T09:45:18.964Z,930
2019-04-27T09:46:18.866Z,909
2019-04-27T09:47:18.919Z,966
2019-04-27T09:48:18.973Z,1069
2019-04-27T09:49:18.878Z,1074
2019-04-27T09:50:18.877Z,994
2019-04-27T09:51:18.969Z,1142
2019-04-27T09:52:26.184Z,1110
2019-04-27T09:53:18.927Z,1115
2019-04-27T09:54:18.911Z,1119
2019-04-27T09:55:18.865Z,914
2019-04-27T09:56:18.923Z,355
2019-04-27T09:57:18.950Z,334
2019-04-27T09:58:18.938Z,368
2019-04-27T09:59:18.931Z,361
2019-04-27T10:00:18.927Z,367
2019-04-27T10:01:18.928Z,318
2019-04-27T10:02:18.930Z,232
2019-04-27T10:03:18.863Z,219
2019-04-27T10:04:18.998Z,242
2019-04-27T10:05:18.934Z,269
2019-04-27T10:06:18.998Z,297
2019-04-27T10:07:18.937Z,190
2019-04-27T10:08:18.937Z,243
2019-04-27T10:09:19.000Z,195
2019-04-27T10:10:18.934Z,166
2019-04-27T10:11:18.935Z,149
2019-04-27T10:12:19.002Z,135
2019-04-27T10:13:19.005Z,137
2019-04-27T10:14:18.981Z,148
2019-04-27T10:15:18.868Z,160
2019-04-27T10:16:18.957Z,167
2019-04-27T10:17:18.923Z,168
2019-04-27T10:18:18.854Z,172
2019-04-27T10:19:28.585Z,173
2019-04-27T10:20:19.965Z,190
2019-04-27T10:21:18.916Z,239
2019-04-27T10:22:18.933Z,293
2019-04-27T10:23:18.870Z,316
2019-04-27T10:24:18.889Z,390
2019-04-27T10:25:18.975Z,447
2019-04-27T10:26:18.993Z,509
2019-04-27T10:27:19.004Z,587
2019-04-27T10:28:19.005Z,594
2019-04-27T10:29:18.952Z,569
2019-04-27T10:30:19.008Z,540
2019-04-27T10:31:18.971Z,590
2019-04-27T10:32:18.896Z,542
2019-04-27T10:33:18.949Z,479
2019-04-27T10:34:18.951Z,401
2019-04-27T10:35:18.960Z,341
2019-04-27T10:36:18.953Z,298
2019-04-27T10:37:19.021Z,274
2019-04-27T10:38:19.049Z,260
2019-04-27T10:39:18.974Z,243
2019-04-27T10:40:19.033Z,218
2019-04-27T10:41:18.959Z,192
2019-04-27T10:42:18.961Z,170
2019-04-27T10:43:18.965Z,145
2019-04-27T10:44:19.017Z,117
2019-04-27T10:45:18.953Z,97
2019-04-27T10:46:18.957Z,88
2019-04-27T10:47:18.919Z,90
2019-04-27T10:48:19.023Z,98
2019-04-27T10:49:19.020Z,110
2019-04-27T10:50:18.967Z,117
2019-04-27T10:51:19.027Z,117
2019-04-27T10:52:18.971Z,111
2019-04-27T10:53:19.027Z,120
2019-04-27T10:54:18.971Z,122
2019-04-27T10:55:18.980Z,159
2019-04-27T10:56:19.047Z,171
2019-04-27T10:57:19.038Z,170
2019-04-27T10:58:18.939Z,162
2019-04-27T10:59:19.038Z,159
2019-04-27T11:00:19.041Z,166
2019-04-27T11:01:19.003Z,196
2019-04-27T11:02:19.044Z,261
2019-04-27T11:03:19.043Z,340
2019-04-27T11:04:19.027Z,397
2019-04-27T11:05:18.909Z,443
2019-04-27T11:06:18.981Z,489
2019-04-27T11:07:18.915Z,495
2019-04-27T11:08:18.973Z,487
2019-04-27T11:09:19.033Z,466
2019-04-27T11:10:18.979Z,444
2019-04-27T11:11:18.975Z,432
2019-04-27T11:12:18.994Z,432
2019-04-27T11:13:19.037Z,426
2019-04-27T11:14:19.041Z,424
2019-04-27T11:15:18.962Z,417
2019-04-27T11:16:19.046Z,398
2019-04-27T11:17:19.047Z,367
2019-04-27T11:18:19.018Z,325
2019-04-27T11:19:18.978Z,278
2019-04-27T11:20:19.046Z,241
2019-04-27T11:21:19.047Z,214
2019-04-27T11:22:19.049Z,198
2019-04-27T11:23:18.984Z,195
2019-04-27T11:24:19.002Z,185
2019-04-27T11:25:19.057Z,162
2019-04-27T11:26:19.069Z,139
2019-04-27T11:27:19.059Z,117
2019-04-27T11:28:19.064Z,110
2019-04-27T11:29:19.069Z,97
2019-04-27T11:30:18.996Z,82
2019-04-27T11:31:19.062Z,70
2019-04-27T11:32:19.001Z,59
2019-04-27T11:33:18.993Z,51
2019-04-27T11:34:18.985Z,43
2019-04-27T11:35:18.982Z,36
2019-04-27T11:36:19.007Z,33
2019-04-27T11:37:18.972Z,31
2019-04-27T11:38:19.061Z,35
2019-04-27T11:39:21.147Z,37
2019-04-27T11:40:18.972Z,44
2019-04-27T11:41:19.063Z,53
2019-04-27T11:42:18.971Z,62
2019-04-27T11:43:18.985Z,67
2019-04-27T11:44:19.072Z,73
2019-04-27T11:45:19.026Z,83
2019-04-27T11:46:19.050Z,97
2019-04-27T11:47:19.012Z,116
2019-04-27T11:48:19.074Z,139
2019-04-27T11:49:19.008Z,172
2019-04-27T11:50:19.088Z,213
2019-04-27T11:51:19.076Z,247
2019-04-27T11:52:19.078Z,276
2019-04-27T11:53:22.580Z,302
2019-04-27T11:54:19.079Z,329
2019-04-27T11:55:19.024Z,362
2019-04-27T11:56:19.089Z,369
2019-04-27T11:57:19.044Z,366
2019-04-27T11:58:19.019Z,344
2019-04-27T11:59:19.016Z,323
2019-04-27T12:00:19.026Z,302
2019-04-27T12:01:19.020Z,279
2019-04-27T12:02:19.088Z,253
2019-04-27T12:03:19.023Z,232
2019-04-27T12:04:18.946Z,220
2019-04-27T12:05:19.064Z,218
2019-04-27T12:06:19.010Z,229
2019-04-27T12:07:19.037Z,241
2019-04-27T12:08:18.949Z,247
2019-04-27T12:09:18.953Z,241
2019-04-27T12:10:18.944Z,248
2019-04-27T12:11:18.972Z,276
2019-04-27T12:12:21.754Z,327
2019-04-27T12:13:19.039Z,386
2019-04-27T12:14:19.087Z,440
2019-04-27T12:15:19.083Z,472
2019-04-27T12:16:19.025Z,481
2019-04-27T12:17:19.088Z,447
2019-04-27T12:18:18.984Z,420
2019-04-27T12:19:19.087Z,392
2019-04-27T12:20:19.003Z,376
2019-04-27T12:21:19.016Z,373
2019-04-27T12:22:19.089Z,367
2019-04-27T12:23:19.017Z,353
2019-04-27T12:24:19.034Z,334
2019-04-27T12:25:19.032Z,320
2019-04-27T12:26:19.099Z,309
2019-04-27T12:27:19.103Z,305
2019-04-27T12:28:19.035Z,300
2019-04-27T12:29:19.131Z,302
2019-04-27T12:30:19.108Z,298
2019-04-27T12:31:19.123Z,301
2019-04-27T12:32:19.104Z,322
2019-04-27T12:33:19.106Z,336
2019-04-27T12:34:19.025Z,348
2019-04-27T12:35:19.100Z,358
2019-04-27T12:36:19.102Z,389
2019-04-27T12:37:19.029Z,413
2019-04-27T12:38:19.101Z,437
2019-04-27T12:39:19.107Z,442
2019-04-27T12:40:19.027Z,442
2019-04-27T12:41:19.043Z,445
2019-04-27T12:42:21.039Z,448
2019-04-27T12:43:19.108Z,448
2019-04-27T12:44:19.080Z,438
2019-04-27T12:45:19.104Z,431
2019-04-27T12:46:19.105Z,395
2019-04-27T12:47:19.035Z,344
2019-04-27T12:48:19.112Z,290
2019-04-27T12:49:19.112Z,249
2019-04-27T12:50:19.087Z,228
2019-04-27T12:51:20.981Z,204
2019-04-27T12:52:19.116Z,183
2019-04-27T12:53:19.046Z,160
2019-04-27T12:54:19.124Z,132
2019-04-27T12:55:19.060Z,114
2019-04-27T12:56:19.066Z,113
2019-04-27T12:57:20.770Z,112
2019-04-27T12:58:19.132Z,109
2019-04-27T12:59:19.066Z,131
2019-04-27T13:00:19.074Z,145
2019-04-27T13:01:19.162Z,141
2019-04-27T13:02:19.069Z,135
2019-04-27T13:03:19.139Z,140
2019-04-27T13:04:19.021Z,147
2019-04-27T13:05:19.095Z,158
2019-04-27T13:06:19.061Z,173
2019-04-27T13:08:19.181Z,211
2019-04-27T13:09:19.132Z,227
2019-04-27T13:10:19.058Z,242
2019-04-27T13:11:19.162Z,256
2019-04-27T13:12:19.144Z,270
2019-04-27T13:14:19.067Z,292
2019-04-27T13:15:19.136Z,294
2019-04-27T13:17:19.147Z,280
2019-04-27T13:18:19.075Z,264
2019-04-27T13:19:19.147Z,253
2019-04-27T13:20:19.146Z,250
2019-04-27T13:21:20.899Z,264
2019-04-27T13:22:19.062Z,284
2019-04-27T13:23:19.174Z,312
2019-04-27T13:24:19.115Z,334
2019-04-27T13:25:19.099Z,365
2019-04-27T13:26:19.037Z,379
2019-04-27T13:27:19.010Z,389
2019-04-27T13:28:19.064Z,395
2019-04-27T13:29:19.024Z,409
2019-04-27T13:30:19.088Z,414
2019-04-27T13:31:19.025Z,409
2019-04-27T13:32:19.144Z,398
2019-04-27T13:33:19.092Z,382
2019-04-27T13:34:19.143Z,367
2019-04-27T13:35:19.078Z,348
2019-04-27T13:36:19.081Z,334
2019-04-27T13:37:19.079Z,328
2019-04-27T13:38:19.037Z,311
2019-04-27T13:39:19.081Z,295
2019-04-27T13:40:19.108Z,287
2019-04-27T13:41:28.374Z,282
2019-04-27T13:42:19.078Z,277
2019-04-27T13:43:19.058Z,278
2019-04-27T13:44:19.079Z,269
2019-04-27T13:45:19.078Z,265
2019-04-27T13:46:19.069Z,271
2019-04-27T13:47:19.145Z,279
2019-04-27T13:48:19.147Z,284
2019-04-27T13:49:19.154Z,281
2019-04-27T13:50:19.091Z,274
2019-04-27T13:51:19.157Z,261
2019-04-27T13:52:19.151Z,244
2019-04-27T13:53:19.053Z,231
2019-04-27T13:54:25.951Z,223
2019-04-27T13:55:19.160Z,219
2019-04-27T13:56:19.149Z,224
2019-04-27T13:57:19.107Z,233
2019-04-27T13:58:19.065Z,230
2019-04-27T13:59:19.099Z,214
2019-04-27T14:00:19.162Z,199
2019-04-27T14:01:19.040Z,200
2019-04-27T14:02:21.131Z,211
2019-04-27T14:03:21.005Z,226
2019-04-27T14:04:19.162Z,236
2019-04-27T14:05:19.167Z,239
2019-04-27T14:06:19.148Z,228
2019-04-27T14:07:19.067Z,204
2019-04-27T14:08:19.162Z,167
2019-04-27T14:09:19.109Z,130
2019-04-27T14:10:20.354Z,99
2019-04-27T14:11:19.123Z,78
2019-04-27T14:12:21.297Z,66